sensor_id;sensor_type;location;lat;lon;timestamp;P1;durP1;ratioP1;P2;durP2;ratioP2
64686;SDS011;51113;53.646;-113.674;2023-03-31T00:01:26;25.27;;;11.20;;
64686;SDS011;51113;53.646;-113.674;2023-03-31T00:03:55;22.08;;;9.43;;
64686;SDS011;51113;53.646;-113.674;2023-03-31T00:06:35;18.55;;;9.13;;
64686;SDS011;51113;53.646;-113.674;2023-03-31T00:09:09;17.20;;;8.02;;
64686;SDS011;51113;53.646;-113.674;2023-03-31T00:11:39;18.38;;;8.98;;
64686;SDS011;51113;53.646;-113.674;2023-03-31T00:14:09;14.32;;;9.13;;
64686;SDS011;51113;53.646;-113.674;2023-03-31T00:16:38;18.88;;;8.90;;
64686;SDS011;51113;53.646;-113.674;2023-03-31T00:19:06;16.92;;;8.48;;
64686;SDS011;51113;53.646;-113.674;2023-03-31T00:24:10;22.52;;;8.25;;
64686;SDS011;51113;53.646;-113.674;2023-03-31T00:26:42;15.57;;;8.65;;
64686;SDS011;51113;53.646;-113.674;2023-03-31T00:29:11;18.45;;;9.18;;
64686;SDS011;51113;53.646;-113.674;2023-03-31T00:31:40;15.07;;;8.88;;
64686;SDS011;51113;53.646;-113.674;2023-03-31T00:34:09;13.93;;;8.57;;
64686;SDS011;51113;53.646;-113.674;2023-03-31T00:36:38;19.48;;;8.65;;
64686;SDS011;51113;53.646;-113.674;2023-03-31T00:39:15;21.20;;;9.32;;
64686;SDS011;51113;53.646;-113.674;2023-03-31T00:41:45;20.27;;;9.38;;
64686;SDS011;51113;53.646;-113.674;2023-03-31T00:44:14;15.93;;;9.85;;
64686;SDS011;51113;53.646;-113.674;2023-03-31T00:46:58;16.77;;;10.57;;
64686;SDS011;51113;53.646;-113.674;2023-03-31T00:49:32;18.00;;;10.45;;
64686;SDS011;51113;53.646;-113.674;2023-03-31T00:52:03;17.40;;;10.38;;
64686;SDS011;51113;53.646;-113.674;2023-03-31T00:54:54;14.95;;;9.93;;
64686;SDS011;51113;53.646;-113.674;2023-03-31T00:57:25;16.25;;;11.02;;
64686;SDS011;51113;53.646;-113.674;2023-03-31T00:59:56;19.67;;;10.45;;
64686;SDS011;51113;53.646;-113.674;2023-03-31T01:02:27;21.33;;;10.65;;
64686;SDS011;51113;53.646;-113.674;2023-03-31T01:04:56;24.33;;;11.07;;
64686;SDS011;51113;53.646;-113.674;2023-03-31T01:10:03;26.00;;;11.02;;
64686;SDS011;51113;53.646;-113.674;2023-03-31T01:12:33;24.88;;;10.68;;
64686;SDS011;51113;53.646;-113.674;2023-03-31T01:15:05;18.60;;;10.87;;
64686;SDS011;51113;53.646;-113.674;2023-03-31T01:17:34;20.58;;;11.07;;
64686;SDS011;51113;53.646;-113.674;2023-03-31T01:20:16;17.35;;;10.43;;
64686;SDS011;51113;53.646;-113.674;2023-03-31T01:23:21;25.13;;;11.07;;
64686;SDS011;51113;53.646;-113.674;2023-03-31T01:34:38;21.90;;;10.77;;
64686;SDS011;51113;53.646;-113.674;2023-03-31T01:45:27;18.52;;;11.63;;
64686;SDS011;51113;53.646;-113.674;2023-03-31T01:48:10;21.38;;;11.27;;
64686;SDS011;51113;53.646;-113.674;2023-03-31T01:53:23;21.63;;;12.40;;
64686;SDS011;51113;53.646;-113.674;2023-03-31T01:56:15;23.60;;;11.20;;
64686;SDS011;51113;53.646;-113.674;2023-03-31T02:02:11;21.02;;;11.57;;
64686;SDS011;51113;53.646;-113.674;2023-03-31T02:04:51;31.33;;;12.63;;
64686;SDS011;51113;53.646;-113.674;2023-03-31T02:07:28;24.23;;;13.18;;
64686;SDS011;51113;53.646;-113.674;2023-03-31T02:10:03;24.35;;;12.30;;
64686;SDS011;51113;53.646;-113.674;2023-03-31T02:12:35;26.17;;;12.27;;
64686;SDS011;51113;53.646;-113.674;2023-03-31T02:15:07;25.15;;;12.52;;
64686;SDS011;51113;53.646;-113.674;2023-03-31T02:17:38;29.08;;;14.02;;
64686;SDS011;51113;53.646;-113.674;2023-03-31T02:20:09;22.90;;;12.75;;
64686;SDS011;51113;53.646;-113.674;2023-03-31T02:22:41;21.42;;;12.85;;
64686;SDS011;51113;53.646;-113.674;2023-03-31T02:25:13;21.07;;;12.70;;
64686;SDS011;51113;53.646;-113.674;2023-03-31T02:27:45;20.25;;;12.57;;
64686;SDS011;51113;53.646;-113.674;2023-03-31T02:30:20;26.55;;;13.02;;
64686;SDS011;51113;53.646;-113.674;2023-03-31T02:32:49;22.42;;;12.65;;
64686;SDS011;51113;53.646;-113.674;2023-03-31T02:35:18;25.35;;;13.32;;
64686;SDS011;51113;53.646;-113.674;2023-03-31T02:37:48;32.55;;;14.30;;
64686;SDS011;51113;53.646;-113.674;2023-03-31T02:40:19;24.65;;;13.93;;
64686;SDS011;51113;53.646;-113.674;2023-03-31T02:42:49;32.10;;;15.38;;
64686;SDS011;51113;53.646;-113.674;2023-03-31T02:48:06;23.15;;;14.73;;
64686;SDS011;51113;53.646;-113.674;2023-03-31T03:10:01;45.53;;;20.45;;
64686;SDS011;51113;53.646;-113.674;2023-03-31T03:12:53;42.55;;;22.63;;
64686;SDS011;51113;53.646;-113.674;2023-03-31T03:15:43;40.22;;;23.25;;
64686;SDS011;51113;53.646;-113.674;2023-03-31T03:18:18;36.30;;;21.70;;
64686;SDS011;51113;53.646;-113.674;2023-03-31T03:20:48;34.97;;;21.55;;
64686;SDS011;51113;53.646;-113.674;2023-03-31T03:23:17;42.60;;;22.67;;
64686;SDS011;51113;53.646;-113.674;2023-03-31T03:25:46;46.60;;;25.80;;
64686;SDS011;51113;53.646;-113.674;2023-03-31T03:28:15;40.90;;;24.17;;
64686;SDS011;51113;53.646;-113.674;2023-03-31T03:30:44;44.22;;;24.08;;
64686;SDS011;51113;53.646;-113.674;2023-03-31T03:33:13;37.88;;;22.73;;
64686;SDS011;51113;53.646;-113.674;2023-03-31T03:35:43;39.83;;;23.27;;
64686;SDS011;51113;53.646;-113.674;2023-03-31T03:38:12;41.90;;;22.98;;
64686;SDS011;51113;53.646;-113.674;2023-03-31T03:40:41;47.88;;;25.20;;
64686;SDS011;51113;53.646;-113.674;2023-03-31T03:43:10;40.38;;;24.40;;
64686;SDS011;51113;53.646;-113.674;2023-03-31T03:45:38;39.53;;;22.75;;
64686;SDS011;51113;53.646;-113.674;2023-03-31T03:48:07;45.42;;;23.45;;
64686;SDS011;51113;53.646;-113.674;2023-03-31T03:50:36;37.50;;;22.65;;
64686;SDS011;51113;53.646;-113.674;2023-03-31T03:53:05;44.97;;;23.50;;
64686;SDS011;51113;53.646;-113.674;2023-03-31T03:55:34;36.40;;;20.38;;
64686;SDS011;51113;53.646;-113.674;2023-03-31T03:58:03;33.17;;;19.83;;
64686;SDS011;51113;53.646;-113.674;2023-03-31T04:00:35;32.10;;;18.73;;
64686;SDS011;51113;53.646;-113.674;2023-03-31T04:03:04;40.58;;;21.35;;
64686;SDS011;51113;53.646;-113.674;2023-03-31T04:05:32;45.20;;;21.92;;
64686;SDS011;51113;53.646;-113.674;2023-03-31T04:08:01;36.65;;;19.65;;
64686;SDS011;51113;53.646;-113.674;2023-03-31T04:10:29;39.28;;;22.63;;
64686;SDS011;51113;53.646;-113.674;2023-03-31T04:12:59;40.50;;;22.45;;
64686;SDS011;51113;53.646;-113.674;2023-03-31T04:15:28;38.97;;;22.77;;
64686;SDS011;51113;53.646;-113.674;2023-03-31T04:17:56;47.42;;;23.13;;
64686;SDS011;51113;53.646;-113.674;2023-03-31T04:20:25;40.63;;;24.08;;
64686;SDS011;51113;53.646;-113.674;2023-03-31T04:22:54;39.20;;;21.65;;
64686;SDS011;51113;53.646;-113.674;2023-03-31T04:25:23;39.88;;;20.92;;
64686;SDS011;51113;53.646;-113.674;2023-03-31T04:27:51;36.72;;;18.60;;
64686;SDS011;51113;53.646;-113.674;2023-03-31T04:30:24;34.50;;;18.17;;
64686;SDS011;51113;53.646;-113.674;2023-03-31T04:32:58;36.20;;;17.67;;
64686;SDS011;51113;53.646;-113.674;2023-03-31T04:35:28;31.13;;;17.08;;
64686;SDS011;51113;53.646;-113.674;2023-03-31T04:38:19;31.50;;;15.98;;
64686;SDS011;51113;53.646;-113.674;2023-03-31T04:40:50;26.85;;;15.57;;
64686;SDS011;51113;53.646;-113.674;2023-03-31T04:43:20;28.05;;;14.80;;
64686;SDS011;51113;53.646;-113.674;2023-03-31T04:45:48;28.27;;;14.85;;
64686;SDS011;51113;53.646;-113.674;2023-03-31T04:48:17;30.30;;;14.75;;
64686;SDS011;51113;53.646;-113.674;2023-03-31T04:50:46;28.15;;;15.05;;
64686;SDS011;51113;53.646;-113.674;2023-03-31T04:53:15;26.02;;;14.13;;
64686;SDS011;51113;53.646;-113.674;2023-03-31T04:55:43;26.23;;;13.93;;
64686;SDS011;51113;53.646;-113.674;2023-03-31T04:58:12;27.90;;;15.27;;
64686;SDS011;51113;53.646;-113.674;2023-03-31T05:00:41;32.33;;;15.98;;
64686;SDS011;51113;53.646;-113.674;2023-03-31T05:03:09;29.30;;;17.48;;
64686;SDS011;51113;53.646;-113.674;2023-03-31T05:05:38;41.25;;;19.90;;
64686;SDS011;51113;53.646;-113.674;2023-03-31T05:08:07;34.65;;;17.90;;
64686;SDS011;51113;53.646;-113.674;2023-03-31T05:10:42;31.77;;;17.27;;
64686;SDS011;51113;53.646;-113.674;2023-03-31T05:13:12;33.60;;;16.98;;
64686;SDS011;51113;53.646;-113.674;2023-03-31T05:15:40;34.05;;;17.17;;
64686;SDS011;51113;53.646;-113.674;2023-03-31T05:18:11;33.00;;;18.73;;
64686;SDS011;51113;53.646;-113.674;2023-03-31T05:20:40;39.65;;;20.23;;
64686;SDS011;51113;53.646;-113.674;2023-03-31T05:23:09;35.92;;;19.85;;
64686;SDS011;51113;53.646;-113.674;2023-03-31T05:25:38;34.08;;;18.20;;
64686;SDS011;51113;53.646;-113.674;2023-03-31T05:28:09;30.58;;;15.88;;
64686;SDS011;51113;53.646;-113.674;2023-03-31T05:30:37;33.63;;;15.75;;
64686;SDS011;51113;53.646;-113.674;2023-03-31T05:33:06;32.20;;;15.88;;
64686;SDS011;51113;53.646;-113.674;2023-03-31T05:35:35;29.77;;;14.68;;
64686;SDS011;51113;53.646;-113.674;2023-03-31T05:38:03;25.05;;;13.90;;
64686;SDS011;51113;53.646;-113.674;2023-03-31T05:40:33;29.23;;;13.55;;
64686;SDS011;51113;53.646;-113.674;2023-03-31T05:43:02;24.63;;;14.23;;
64686;SDS011;51113;53.646;-113.674;2023-03-31T05:45:30;26.30;;;15.35;;
64686;SDS011;51113;53.646;-113.674;2023-03-31T05:47:59;27.05;;;14.52;;
64686;SDS011;51113;53.646;-113.674;2023-03-31T05:50:27;29.52;;;15.27;;
64686;SDS011;51113;53.646;-113.674;2023-03-31T05:52:56;28.52;;;15.02;;
64686;SDS011;51113;53.646;-113.674;2023-03-31T05:55:26;34.05;;;15.27;;
64686;SDS011;51113;53.646;-113.674;2023-03-31T05:57:56;32.88;;;16.30;;
64686;SDS011;51113;53.646;-113.674;2023-03-31T06:00:24;28.38;;;15.85;;
64686;SDS011;51113;53.646;-113.674;2023-03-31T06:02:53;27.38;;;15.63;;
64686;SDS011;51113;53.646;-113.674;2023-03-31T06:05:22;30.42;;;16.02;;
64686;SDS011;51113;53.646;-113.674;2023-03-31T06:07:53;37.72;;;16.73;;
64686;SDS011;51113;53.646;-113.674;2023-03-31T06:10:21;30.63;;;16.77;;
64686;SDS011;51113;53.646;-113.674;2023-03-31T06:12:50;30.38;;;17.40;;
64686;SDS011;51113;53.646;-113.674;2023-03-31T06:15:19;35.55;;;16.92;;
64686;SDS011;51113;53.646;-113.674;2023-03-31T06:17:48;35.58;;;18.50;;
64686;SDS011;51113;53.646;-113.674;2023-03-31T06:20:17;34.63;;;18.73;;
64686;SDS011;51113;53.646;-113.674;2023-03-31T06:22:53;35.20;;;17.38;;
64686;SDS011;51113;53.646;-113.674;2023-03-31T06:25:22;31.17;;;18.00;;
64686;SDS011;51113;53.646;-113.674;2023-03-31T06:27:51;36.60;;;18.15;;
64686;SDS011;51113;53.646;-113.674;2023-03-31T06:30:20;31.08;;;17.17;;
64686;SDS011;51113;53.646;-113.674;2023-03-31T06:32:48;30.85;;;16.52;;
64686;SDS011;51113;53.646;-113.674;2023-03-31T06:35:17;29.77;;;16.20;;
64686;SDS011;51113;53.646;-113.674;2023-03-31T06:37:46;28.83;;;15.45;;
64686;SDS011;51113;53.646;-113.674;2023-03-31T06:40:14;28.73;;;15.43;;
64686;SDS011;51113;53.646;-113.674;2023-03-31T06:42:43;29.70;;;15.02;;
64686;SDS011;51113;53.646;-113.674;2023-03-31T06:45:12;31.83;;;14.57;;
64686;SDS011;51113;53.646;-113.674;2023-03-31T06:47:41;26.92;;;13.23;;
64686;SDS011;51113;53.646;-113.674;2023-03-31T06:50:09;29.63;;;12.50;;
64686;SDS011;51113;53.646;-113.674;2023-03-31T06:52:38;25.48;;;11.68;;
64686;SDS011;51113;53.646;-113.674;2023-03-31T06:55:09;26.25;;;12.32;;
64686;SDS011;51113;53.646;-113.674;2023-03-31T06:57:39;26.50;;;12.20;;
64686;SDS011;51113;53.646;-113.674;2023-03-31T07:00:08;28.05;;;12.82;;
64686;SDS011;51113;53.646;-113.674;2023-03-31T07:02:37;22.88;;;11.80;;
64686;SDS011;51113;53.646;-113.674;2023-03-31T07:05:06;23.88;;;11.57;;
64686;SDS011;51113;53.646;-113.674;2023-03-31T07:07:35;20.73;;;10.52;;
64686;SDS011;51113;53.646;-113.674;2023-03-31T07:10:04;24.15;;;11.43;;
64686;SDS011;51113;53.646;-113.674;2023-03-31T07:12:34;25.17;;;11.55;;
64686;SDS011;51113;53.646;-113.674;2023-03-31T07:15:02;19.33;;;10.05;;
64686;SDS011;51113;53.646;-113.674;2023-03-31T07:17:31;20.98;;;11.32;;
64686;SDS011;51113;53.646;-113.674;2023-03-31T07:20:00;24.08;;;10.75;;
64686;SDS011;51113;53.646;-113.674;2023-03-31T07:22:30;24.83;;;10.68;;
64686;SDS011;51113;53.646;-113.674;2023-03-31T07:24:59;23.80;;;10.43;;
64686;SDS011;51113;53.646;-113.674;2023-03-31T07:27:27;19.30;;;10.68;;
64686;SDS011;51113;53.646;-113.674;2023-03-31T07:29:56;21.75;;;10.05;;
64686;SDS011;51113;53.646;-113.674;2023-03-31T07:32:25;14.65;;;8.73;;
64686;SDS011;51113;53.646;-113.674;2023-03-31T07:34:58;19.90;;;9.07;;
64686;SDS011;51113;53.646;-113.674;2023-03-31T07:37:27;16.23;;;7.80;;
64686;SDS011;51113;53.646;-113.674;2023-03-31T07:39:55;15.98;;;8.35;;
64686;SDS011;51113;53.646;-113.674;2023-03-31T07:42:24;13.25;;;7.65;;
64686;SDS011;51113;53.646;-113.674;2023-03-31T07:44:52;14.40;;;7.93;;
64686;SDS011;51113;53.646;-113.674;2023-03-31T07:47:21;14.98;;;7.93;;
64686;SDS011;51113;53.646;-113.674;2023-03-31T07:49:50;14.93;;;8.45;;
64686;SDS011;51113;53.646;-113.674;2023-03-31T07:52:19;14.15;;;7.97;;
64686;SDS011;51113;53.646;-113.674;2023-03-31T07:54:48;14.40;;;8.35;;
64686;SDS011;51113;53.646;-113.674;2023-03-31T07:57:17;14.43;;;8.30;;
64686;SDS011;51113;53.646;-113.674;2023-03-31T07:59:46;13.90;;;8.10;;
64686;SDS011;51113;53.646;-113.674;2023-03-31T08:02:15;15.55;;;8.68;;
64686;SDS011;51113;53.646;-113.674;2023-03-31T08:04:45;12.63;;;7.60;;
64686;SDS011;51113;53.646;-113.674;2023-03-31T08:07:15;15.65;;;8.77;;
64686;SDS011;51113;53.646;-113.674;2023-03-31T08:09:44;15.15;;;7.50;;
64686;SDS011;51113;53.646;-113.674;2023-03-31T08:12:13;20.00;;;8.63;;
64686;SDS011;51113;53.646;-113.674;2023-03-31T08:14:42;15.13;;;7.78;;
64686;SDS011;51113;53.646;-113.674;2023-03-31T08:17:11;14.63;;;8.50;;
64686;SDS011;51113;53.646;-113.674;2023-03-31T08:19:43;15.85;;;8.05;;
64686;SDS011;51113;53.646;-113.674;2023-03-31T08:22:11;13.95;;;7.72;;
64686;SDS011;51113;53.646;-113.674;2023-03-31T08:24:40;14.18;;;7.95;;
64686;SDS011;51113;53.646;-113.674;2023-03-31T08:27:09;14.57;;;8.13;;
64686;SDS011;51113;53.646;-113.674;2023-03-31T08:29:38;16.17;;;8.32;;
64686;SDS011;51113;53.646;-113.674;2023-03-31T08:32:07;15.57;;;8.32;;
64686;SDS011;51113;53.646;-113.674;2023-03-31T08:34:35;14.30;;;7.72;;
64686;SDS011;51113;53.646;-113.674;2023-03-31T08:37:04;15.13;;;7.75;;
64686;SDS011;51113;53.646;-113.674;2023-03-31T08:39:33;14.00;;;8.05;;
64686;SDS011;51113;53.646;-113.674;2023-03-31T08:42:10;17.02;;;8.63;;
64686;SDS011;51113;53.646;-113.674;2023-03-31T08:44:59;13.65;;;8.13;;
64686;SDS011;51113;53.646;-113.674;2023-03-31T08:47:34;13.38;;;8.10;;
64686;SDS011;51113;53.646;-113.674;2023-03-31T08:50:06;19.80;;;8.40;;
64686;SDS011;51113;53.646;-113.674;2023-03-31T08:52:40;16.23;;;7.78;;
64686;SDS011;51113;53.646;-113.674;2023-03-31T08:55:22;19.65;;;9.05;;
64686;SDS011;51113;53.646;-113.674;2023-03-31T08:58:06;16.10;;;8.20;;
64686;SDS011;51113;53.646;-113.674;2023-03-31T09:00:45;14.75;;;8.75;;
64686;SDS011;51113;53.646;-113.674;2023-03-31T09:03:25;15.85;;;8.75;;
64686;SDS011;51113;53.646;-113.674;2023-03-31T09:06:42;15.63;;;8.20;;
64686;SDS011;51113;53.646;-113.674;2023-03-31T09:08:53;17.48;;;8.63;;
64686;SDS011;51113;53.646;-113.674;2023-03-31T09:11:34;15.93;;;7.82;;
64686;SDS011;51113;53.646;-113.674;2023-03-31T09:14:35;15.02;;;7.95;;
64686;SDS011;51113;53.646;-113.674;2023-03-31T09:22:29;17.10;;;8.18;;
64686;SDS011;51113;53.646;-113.674;2023-03-31T09:25:34;16.23;;;7.68;;
64686;SDS011;51113;53.646;-113.674;2023-03-31T09:27:55;16.45;;;8.45;;
64686;SDS011;51113;53.646;-113.674;2023-03-31T09:30:26;13.32;;;7.60;;
64686;SDS011;51113;53.646;-113.674;2023-03-31T09:35:55;15.18;;;8.40;;
64686;SDS011;51113;53.646;-113.674;2023-03-31T09:38:24;15.43;;;8.32;;
64686;SDS011;51113;53.646;-113.674;2023-03-31T09:40:56;18.10;;;7.93;;
64686;SDS011;51113;53.646;-113.674;2023-03-31T09:43:27;16.23;;;8.32;;
64686;SDS011;51113;53.646;-113.674;2023-03-31T09:45:56;14.90;;;7.82;;
64686;SDS011;51113;53.646;-113.674;2023-03-31T09:51:13;14.20;;;7.72;;
64686;SDS011;51113;53.646;-113.674;2023-03-31T09:53:47;15.18;;;7.85;;
64686;SDS011;51113;53.646;-113.674;2023-03-31T09:59:34;15.18;;;8.10;;
64686;SDS011;51113;53.646;-113.674;2023-03-31T10:02:05;15.32;;;7.82;;
64686;SDS011;51113;53.646;-113.674;2023-03-31T10:05:03;17.48;;;8.27;;
64686;SDS011;51113;53.646;-113.674;2023-03-31T10:07:33;20.35;;;8.95;;
64686;SDS011;51113;53.646;-113.674;2023-03-31T10:10:02;22.55;;;9.65;;
64686;SDS011;51113;53.646;-113.674;2023-03-31T10:12:40;17.45;;;8.07;;
64686;SDS011;51113;53.646;-113.674;2023-03-31T10:15:19;15.63;;;8.52;;
64686;SDS011;51113;53.646;-113.674;2023-03-31T10:17:49;22.08;;;9.20;;
64686;SDS011;51113;53.646;-113.674;2023-03-31T10:20:36;15.50;;;8.13;;
64686;SDS011;51113;53.646;-113.674;2023-03-31T10:23:13;16.05;;;8.52;;
64686;SDS011;51113;53.646;-113.674;2023-03-31T10:25:54;17.48;;;9.05;;
64686;SDS011;51113;53.646;-113.674;2023-03-31T10:28:23;15.18;;;8.48;;
64686;SDS011;51113;53.646;-113.674;2023-03-31T10:30:53;16.23;;;8.30;;
64686;SDS011;51113;53.646;-113.674;2023-03-31T10:33:25;14.88;;;8.70;;
64686;SDS011;51113;53.646;-113.674;2023-03-31T10:35:55;17.75;;;8.43;;
64686;SDS011;51113;53.646;-113.674;2023-03-31T10:38:29;14.13;;;8.13;;
64686;SDS011;51113;53.646;-113.674;2023-03-31T10:41:01;18.67;;;8.07;;
64686;SDS011;51113;53.646;-113.674;2023-03-31T10:43:40;14.93;;;7.90;;
64686;SDS011;51113;53.646;-113.674;2023-03-31T10:46:09;17.20;;;8.63;;
64686;SDS011;51113;53.646;-113.674;2023-03-31T10:48:40;16.90;;;8.77;;
64686;SDS011;51113;53.646;-113.674;2023-03-31T10:53:54;16.83;;;8.73;;
64686;SDS011;51113;53.646;-113.674;2023-03-31T10:56:37;16.63;;;8.30;;
64686;SDS011;51113;53.646;-113.674;2023-03-31T11:05:43;15.77;;;9.05;;
64686;SDS011;51113;53.646;-113.674;2023-03-31T11:11:15;17.55;;;8.30;;
64686;SDS011;51113;53.646;-113.674;2023-03-31T11:14:04;19.88;;;9.07;;
64686;SDS011;51113;53.646;-113.674;2023-03-31T11:16:47;17.88;;;9.48;;
64686;SDS011;51113;53.646;-113.674;2023-03-31T11:19:32;18.48;;;8.77;;
64686;SDS011;51113;53.646;-113.674;2023-03-31T11:25:07;17.98;;;9.20;;
64686;SDS011;51113;53.646;-113.674;2023-03-31T11:27:49;19.48;;;10.00;;
64686;SDS011;51113;53.646;-113.674;2023-03-31T11:38:34;16.67;;;9.10;;
64686;SDS011;51113;53.646;-113.674;2023-03-31T11:44:13;18.67;;;9.30;;
64686;SDS011;51113;53.646;-113.674;2023-03-31T11:46:51;20.02;;;9.52;;
64686;SDS011;51113;53.646;-113.674;2023-03-31T11:49:37;20.52;;;9.38;;
64686;SDS011;51113;53.646;-113.674;2023-03-31T11:52:20;23.35;;;9.48;;
64686;SDS011;51113;53.646;-113.674;2023-03-31T11:57:35;22.08;;;10.90;;
64686;SDS011;51113;53.646;-113.674;2023-03-31T12:00:11;22.88;;;10.55;;
64686;SDS011;51113;53.646;-113.674;2023-03-31T12:05:30;24.45;;;11.52;;
64686;SDS011;51113;53.646;-113.674;2023-03-31T12:08:10;22.20;;;11.57;;
64686;SDS011;51113;53.646;-113.674;2023-03-31T12:10:45;21.80;;;10.93;;
64686;SDS011;51113;53.646;-113.674;2023-03-31T12:13:32;26.35;;;12.10;;
64686;SDS011;51113;53.646;-113.674;2023-03-31T12:22:02;32.50;;;12.93;;
64686;SDS011;51113;53.646;-113.674;2023-03-31T12:24:35;28.20;;;13.45;;
64686;SDS011;51113;53.646;-113.674;2023-03-31T12:27:15;34.40;;;14.57;;
64686;SDS011;51113;53.646;-113.674;2023-03-31T12:32:47;35.65;;;14.68;;
64686;SDS011;51113;53.646;-113.674;2023-03-31T12:41:15;35.67;;;14.73;;
64686;SDS011;51113;53.646;-113.674;2023-03-31T12:44:09;44.70;;;18.60;;
64686;SDS011;51113;53.646;-113.674;2023-03-31T12:47:02;43.15;;;16.15;;
64686;SDS011;51113;53.646;-113.674;2023-03-31T12:52:43;39.95;;;16.73;;
64686;SDS011;51113;53.646;-113.674;2023-03-31T13:06:07;40.03;;;16.30;;
64686;SDS011;51113;53.646;-113.674;2023-03-31T13:08:57;44.05;;;17.23;;
64686;SDS011;51113;53.646;-113.674;2023-03-31T13:14:20;44.30;;;17.85;;
64686;SDS011;51113;53.646;-113.674;2023-03-31T13:16:51;49.97;;;19.75;;
64686;SDS011;51113;53.646;-113.674;2023-03-31T13:19:27;56.17;;;20.63;;
64686;SDS011;51113;53.646;-113.674;2023-03-31T13:21:59;47.03;;;19.48;;
64686;SDS011;51113;53.646;-113.674;2023-03-31T13:24:30;64.70;;;22.65;;
64686;SDS011;51113;53.646;-113.674;2023-03-31T13:33:19;53.25;;;20.15;;
64686;SDS011;51113;53.646;-113.674;2023-03-31T13:42:04;56.92;;;20.40;;
64686;SDS011;51113;53.646;-113.674;2023-03-31T13:55:33;53.28;;;22.55;;
64686;SDS011;51113;53.646;-113.674;2023-03-31T13:58:43;62.53;;;23.25;;
64686;SDS011;51113;53.646;-113.674;2023-03-31T14:06:58;54.10;;;21.90;;
64686;SDS011;51113;53.646;-113.674;2023-03-31T14:09:35;53.00;;;21.13;;
64686;SDS011;51113;53.646;-113.674;2023-03-31T14:12:22;54.10;;;21.02;;
64686;SDS011;51113;53.646;-113.674;2023-03-31T14:14:59;50.17;;;21.30;;
64686;SDS011;51113;53.646;-113.674;2023-03-31T14:17:36;53.33;;;22.48;;
64686;SDS011;51113;53.646;-113.674;2023-03-31T14:23:14;53.00;;;21.10;;
64686;SDS011;51113;53.646;-113.674;2023-03-31T14:29:03;67.50;;;22.98;;
64686;SDS011;51113;53.646;-113.674;2023-03-31T14:31:50;47.60;;;21.45;;
64686;SDS011;51113;53.646;-113.674;2023-03-31T14:37:14;49.65;;;21.48;;
64686;SDS011;51113;53.646;-113.674;2023-03-31T14:39:49;48.50;;;21.02;;
64686;SDS011;51113;53.646;-113.674;2023-03-31T14:42:40;52.92;;;22.20;;
64686;SDS011;51113;53.646;-113.674;2023-03-31T14:45:23;54.97;;;21.42;;
64686;SDS011;51113;53.646;-113.674;2023-03-31T14:50:29;45.83;;;21.35;;
64686;SDS011;51113;53.646;-113.674;2023-03-31T14:53:02;48.83;;;21.23;;
64686;SDS011;51113;53.646;-113.674;2023-03-31T14:55:31;40.13;;;20.35;;
64686;SDS011;51113;53.646;-113.674;2023-03-31T14:58:03;40.40;;;20.48;;
64686;SDS011;51113;53.646;-113.674;2023-03-31T15:00:32;43.83;;;20.45;;
64686;SDS011;51113;53.646;-113.674;2023-03-31T15:03:02;43.67;;;20.38;;
64686;SDS011;51113;53.646;-113.674;2023-03-31T15:05:35;47.97;;;20.88;;
64686;SDS011;51113;53.646;-113.674;2023-03-31T15:08:38;42.50;;;20.27;;
64686;SDS011;51113;53.646;-113.674;2023-03-31T15:11:01;46.53;;;21.88;;
64686;SDS011;51113;53.646;-113.674;2023-03-31T15:13:39;43.63;;;21.27;;
64686;SDS011;51113;53.646;-113.674;2023-03-31T15:16:28;41.53;;;19.42;;
64686;SDS011;51113;53.646;-113.674;2023-03-31T15:19:17;53.78;;;20.23;;
64686;SDS011;51113;53.646;-113.674;2023-03-31T15:22:01;42.47;;;19.33;;
64686;SDS011;51113;53.646;-113.674;2023-03-31T15:24:37;41.13;;;19.15;;
64686;SDS011;51113;53.646;-113.674;2023-03-31T15:27:12;43.78;;;20.92;;
64686;SDS011;51113;53.646;-113.674;2023-03-31T15:30:08;42.50;;;19.90;;
64686;SDS011;51113;53.646;-113.674;2023-03-31T15:32:43;37.47;;;19.05;;
64686;SDS011;51113;53.646;-113.674;2023-03-31T15:38:00;40.88;;;19.15;;
64686;SDS011;51113;53.646;-113.674;2023-03-31T15:40:37;42.47;;;19.95;;
64686;SDS011;51113;53.646;-113.674;2023-03-31T15:43:17;39.67;;;19.70;;
64686;SDS011;51113;53.646;-113.674;2023-03-31T15:46:04;40.78;;;19.50;;
64686;SDS011;51113;53.646;-113.674;2023-03-31T15:48:37;38.85;;;19.55;;
64686;SDS011;51113;53.646;-113.674;2023-03-31T15:51:29;44.25;;;18.88;;
64686;SDS011;51113;53.646;-113.674;2023-03-31T15:53:59;46.03;;;18.95;;
64686;SDS011;51113;53.646;-113.674;2023-03-31T15:56:36;33.03;;;17.92;;
64686;SDS011;51113;53.646;-113.674;2023-03-31T16:02:09;39.92;;;17.67;;
64686;SDS011;51113;53.646;-113.674;2023-03-31T16:04:40;38.93;;;18.00;;
64686;SDS011;51113;53.646;-113.674;2023-03-31T16:07:13;31.98;;;17.55;;
64686;SDS011;51113;53.646;-113.674;2023-03-31T16:12:27;32.58;;;18.33;;
64686;SDS011;51113;53.646;-113.674;2023-03-31T16:15:11;38.92;;;19.35;;
64686;SDS011;51113;53.646;-113.674;2023-03-31T16:17:51;35.63;;;18.17;;
64686;SDS011;51113;53.646;-113.674;2023-03-31T16:20:23;35.88;;;18.25;;
64686;SDS011;51113;53.646;-113.674;2023-03-31T16:25:46;32.70;;;16.98;;
64686;SDS011;51113;53.646;-113.674;2023-03-31T16:28:15;37.38;;;16.30;;
64686;SDS011;51113;53.646;-113.674;2023-03-31T16:30:47;43.38;;;18.25;;
64686;SDS011;51113;53.646;-113.674;2023-03-31T16:33:16;36.47;;;16.55;;
64686;SDS011;51113;53.646;-113.674;2023-03-31T16:35:47;31.38;;;15.90;;
64686;SDS011;51113;53.646;-113.674;2023-03-31T16:38:23;27.63;;;15.70;;
64686;SDS011;51113;53.646;-113.674;2023-03-31T16:40:53;34.85;;;16.55;;
64686;SDS011;51113;53.646;-113.674;2023-03-31T16:43:24;34.35;;;16.13;;
64686;SDS011;51113;53.646;-113.674;2023-03-31T16:45:58;31.63;;;17.05;;
64686;SDS011;51113;53.646;-113.674;2023-03-31T16:48:28;32.35;;;15.23;;
64686;SDS011;51113;53.646;-113.674;2023-03-31T16:51:01;27.48;;;14.93;;
64686;SDS011;51113;53.646;-113.674;2023-03-31T16:53:31;29.25;;;14.50;;
64686;SDS011;51113;53.646;-113.674;2023-03-31T16:56:03;27.98;;;14.88;;
64686;SDS011;51113;53.646;-113.674;2023-03-31T16:58:36;22.23;;;13.70;;
64686;SDS011;51113;53.646;-113.674;2023-03-31T17:01:06;33.17;;;13.88;;
64686;SDS011;51113;53.646;-113.674;2023-03-31T17:03:35;30.73;;;14.85;;
64686;SDS011;51113;53.646;-113.674;2023-03-31T17:06:10;29.30;;;14.40;;
64686;SDS011;51113;53.646;-113.674;2023-03-31T17:08:39;25.20;;;15.23;;
64686;SDS011;51113;53.646;-113.674;2023-03-31T17:11:09;29.10;;;14.57;;
64686;SDS011;51113;53.646;-113.674;2023-03-31T17:13:41;26.75;;;14.48;;
64686;SDS011;51113;53.646;-113.674;2023-03-31T17:16:11;26.55;;;14.43;;
64686;SDS011;51113;53.646;-113.674;2023-03-31T17:18:54;26.40;;;13.95;;
64686;SDS011;51113;53.646;-113.674;2023-03-31T17:21:23;26.65;;;13.98;;
64686;SDS011;51113;53.646;-113.674;2023-03-31T17:23:52;24.55;;;13.60;;